sensor_id;sensor_type;location;lat;lon;timestamp;P1;durP1;ratioP1;P2;durP2;ratioP2
68284;SDS011;55114;52.052;5.238;2023-07-08T00:01:14;6.03;;;3.40;;
68284;SDS011;55114;52.052;5.238;2023-07-08T00:03:42;6.15;;;2.92;;
68284;SDS011;55114;52.052;5.238;2023-07-08T00:06:11;5.10;;;3.00;;
68284;SDS011;55114;52.052;5.238;2023-07-08T00:08:40;6.80;;;3.38;;
68284;SDS011;55114;52.052;5.238;2023-07-08T00:11:10;5.95;;;3.10;;
68284;SDS011;55114;52.052;5.238;2023-07-08T00:13:38;6.87;;;3.40;;
68284;SDS011;55114;52.052;5.238;2023-07-08T00:16:16;6.10;;;3.22;;
68284;SDS011;55114;52.052;5.238;2023-07-08T00:18:45;6.78;;;3.40;;
68284;SDS011;55114;52.052;5.238;2023-07-08T00:21:13;5.53;;;3.13;;
68284;SDS011;55114;52.052;5.238;2023-07-08T00:23:45;5.47;;;3.40;;
68284;SDS011;55114;52.052;5.238;2023-07-08T00:28:47;5.53;;;3.17;;
68284;SDS011;55114;52.052;5.238;2023-07-08T00:31:14;5.60;;;3.53;;
68284;SDS011;55114;52.052;5.238;2023-07-08T00:33:42;5.68;;;3.20;;
68284;SDS011;55114;52.052;5.238;2023-07-08T00:36:12;7.03;;;3.35;;
68284;SDS011;55114;52.052;5.238;2023-07-08T00:38:41;6.23;;;3.80;;
68284;SDS011;55114;52.052;5.238;2023-07-08T00:41:57;5.35;;;3.25;;
68284;SDS011;55114;52.052;5.238;2023-07-08T00:43:59;6.05;;;3.30;;
68284;SDS011;55114;52.052;5.238;2023-07-08T00:51:36;7.50;;;3.83;;
68284;SDS011;55114;52.052;5.238;2023-07-08T00:54:13;6.68;;;3.38;;
68284;SDS011;55114;52.052;5.238;2023-07-08T00:56:42;4.43;;;3.13;;
68284;SDS011;55114;52.052;5.238;2023-07-08T00:59:11;5.80;;;3.50;;
68284;SDS011;55114;52.052;5.238;2023-07-08T01:01:40;6.38;;;3.50;;
68284;SDS011;55114;52.052;5.238;2023-07-08T01:04:15;5.47;;;3.10;;
68284;SDS011;55114;52.052;5.238;2023-07-08T01:06:47;6.30;;;3.17;;
68284;SDS011;55114;52.052;5.238;2023-07-08T01:09:27;5.70;;;3.70;;
68284;SDS011;55114;52.052;5.238;2023-07-08T01:11:56;6.15;;;3.63;;
68284;SDS011;55114;52.052;5.238;2023-07-08T01:14:26;5.90;;;3.45;;
68284;SDS011;55114;52.052;5.238;2023-07-08T01:16:54;5.40;;;3.30;;
68284;SDS011;55114;52.052;5.238;2023-07-08T01:19:21;7.18;;;3.30;;
68284;SDS011;55114;52.052;5.238;2023-07-08T01:21:59;5.93;;;3.40;;
68284;SDS011;55114;52.052;5.238;2023-07-08T01:24:27;5.35;;;3.33;;
68284;SDS011;55114;52.052;5.238;2023-07-08T01:26:56;6.40;;;3.53;;
68284;SDS011;55114;52.052;5.238;2023-07-08T01:29:23;5.40;;;3.20;;
68284;SDS011;55114;52.052;5.238;2023-07-08T01:31:51;5.93;;;3.55;;
68284;SDS011;55114;52.052;5.238;2023-07-08T01:34:18;6.63;;;3.38;;
68284;SDS011;55114;52.052;5.238;2023-07-08T01:36:47;4.80;;;3.17;;
68284;SDS011;55114;52.052;5.238;2023-07-08T01:39:16;5.35;;;3.20;;
68284;SDS011;55114;52.052;5.238;2023-07-08T01:41:44;7.00;;;3.57;;
68284;SDS011;55114;52.052;5.238;2023-07-08T01:44:28;5.13;;;3.22;;
68284;SDS011;55114;52.052;5.238;2023-07-08T01:46:58;5.47;;;3.33;;
68284;SDS011;55114;52.052;5.238;2023-07-08T01:49:26;6.38;;;3.38;;
68284;SDS011;55114;52.052;5.238;2023-07-08T01:51:54;6.13;;;3.65;;
68284;SDS011;55114;52.052;5.238;2023-07-08T01:54:22;5.23;;;3.30;;
68284;SDS011;55114;52.052;5.238;2023-07-08T01:56:53;7.43;;;3.25;;
68284;SDS011;55114;52.052;5.238;2023-07-08T01:59:21;5.68;;;3.30;;
68284;SDS011;55114;52.052;5.238;2023-07-08T02:01:49;5.15;;;3.42;;
68284;SDS011;55114;52.052;5.238;2023-07-08T02:04:21;5.95;;;3.58;;
68284;SDS011;55114;52.052;5.238;2023-07-08T02:06:53;5.03;;;3.27;;
68284;SDS011;55114;52.052;5.238;2023-07-08T02:09:21;5.60;;;3.45;;
68284;SDS011;55114;52.052;5.238;2023-07-08T02:11:48;6.32;;;3.40;;
68284;SDS011;55114;52.052;5.238;2023-07-08T02:14:16;8.00;;;3.45;;
68284;SDS011;55114;52.052;5.238;2023-07-08T02:16:43;6.13;;;3.70;;
68284;SDS011;55114;52.052;5.238;2023-07-08T02:19:10;6.07;;;3.37;;
68284;SDS011;55114;52.052;5.238;2023-07-08T02:21:38;5.90;;;3.50;;
68284;SDS011;55114;52.052;5.238;2023-07-08T02:24:05;6.50;;;3.60;;
68284;SDS011;55114;52.052;5.238;2023-07-08T02:26:33;6.70;;;3.45;;
68284;SDS011;55114;52.052;5.238;2023-07-08T02:29:00;6.43;;;3.67;;
68284;SDS011;55114;52.052;5.238;2023-07-08T02:31:28;6.83;;;3.63;;
68284;SDS011;55114;52.052;5.238;2023-07-08T02:33:55;5.93;;;3.70;;
68284;SDS011;55114;52.052;5.238;2023-07-08T02:36:22;5.68;;;3.22;;
68284;SDS011;55114;52.052;5.238;2023-07-08T02:38:49;7.97;;;3.40;;
68284;SDS011;55114;52.052;5.238;2023-07-08T02:41:17;4.88;;;3.15;;
68284;SDS011;55114;52.052;5.238;2023-07-08T02:43:44;5.50;;;3.20;;
68284;SDS011;55114;52.052;5.238;2023-07-08T02:46:12;6.28;;;3.30;;
68284;SDS011;55114;52.052;5.238;2023-07-08T02:48:39;7.30;;;3.60;;
68284;SDS011;55114;52.052;5.238;2023-07-08T02:51:07;7.28;;;3.53;;
68284;SDS011;55114;52.052;5.238;2023-07-08T02:53:37;12.02;;;3.70;;
68284;SDS011;55114;52.052;5.238;2023-07-08T02:56:04;6.30;;;3.60;;
68284;SDS011;55114;52.052;5.238;2023-07-08T02:58:31;6.05;;;3.30;;
68284;SDS011;55114;52.052;5.238;2023-07-08T03:01:00;5.22;;;3.22;;
68284;SDS011;55114;52.052;5.238;2023-07-08T03:03:28;5.50;;;3.20;;
68284;SDS011;55114;52.052;5.238;2023-07-08T03:05:56;5.13;;;3.33;;
68284;SDS011;55114;52.052;5.238;2023-07-08T03:08:24;6.33;;;3.30;;
68284;SDS011;55114;52.052;5.238;2023-07-08T03:10:56;5.90;;;3.60;;
68284;SDS011;55114;52.052;5.238;2023-07-08T03:13:24;5.28;;;3.28;;
68284;SDS011;55114;52.052;5.238;2023-07-08T03:15:52;4.95;;;3.40;;
68284;SDS011;55114;52.052;5.238;2023-07-08T03:18:21;8.05;;;3.40;;
68284;SDS011;55114;52.052;5.238;2023-07-08T03:20:50;7.77;;;3.90;;
68284;SDS011;55114;52.052;5.238;2023-07-08T03:23:17;7.22;;;3.30;;
68284;SDS011;55114;52.052;5.238;2023-07-08T03:25:44;6.47;;;3.65;;
68284;SDS011;55114;52.052;5.238;2023-07-08T03:28:12;5.95;;;3.35;;
68284;SDS011;55114;52.052;5.238;2023-07-08T03:30:40;6.40;;;3.55;;
68284;SDS011;55114;52.052;5.238;2023-07-08T03:33:09;6.10;;;3.23;;
68284;SDS011;55114;52.052;5.238;2023-07-08T03:35:37;5.88;;;3.20;;
68284;SDS011;55114;52.052;5.238;2023-07-08T03:38:07;7.45;;;3.33;;
68284;SDS011;55114;52.052;5.238;2023-07-08T03:40:34;5.60;;;3.20;;
68284;SDS011;55114;52.052;5.238;2023-07-08T03:43:02;6.57;;;3.42;;
68284;SDS011;55114;52.052;5.238;2023-07-08T03:45:29;5.77;;;3.17;;
68284;SDS011;55114;52.052;5.238;2023-07-08T03:47:56;6.57;;;3.25;;
68284;SDS011;55114;52.052;5.238;2023-07-08T03:50:24;7.32;;;3.42;;
68284;SDS011;55114;52.052;5.238;2023-07-08T03:52:52;5.78;;;3.20;;
68284;SDS011;55114;52.052;5.238;2023-07-08T03:55:20;6.75;;;3.70;;
68284;SDS011;55114;52.052;5.238;2023-07-08T03:57:48;5.60;;;3.23;;
68284;SDS011;55114;52.052;5.238;2023-07-08T04:00:15;6.22;;;3.40;;
68284;SDS011;55114;52.052;5.238;2023-07-08T04:02:42;5.88;;;3.10;;
68284;SDS011;55114;52.052;5.238;2023-07-08T04:05:20;7.15;;;3.03;;
68284;SDS011;55114;52.052;5.238;2023-07-08T04:07:48;6.00;;;3.65;;
68284;SDS011;55114;52.052;5.238;2023-07-08T04:10:15;6.80;;;3.83;;
68284;SDS011;55114;52.052;5.238;2023-07-08T04:12:43;5.50;;;3.22;;
68284;SDS011;55114;52.052;5.238;2023-07-08T04:15:10;7.28;;;3.55;;
68284;SDS011;55114;52.052;5.238;2023-07-08T04:17:40;7.05;;;3.65;;
68284;SDS011;55114;52.052;5.238;2023-07-08T04:20:09;7.82;;;4.15;;
68284;SDS011;55114;52.052;5.238;2023-07-08T04:22:37;6.53;;;3.27;;
68284;SDS011;55114;52.052;5.238;2023-07-08T04:25:04;5.63;;;3.28;;
68284;SDS011;55114;52.052;5.238;2023-07-08T04:27:32;6.25;;;3.17;;
68284;SDS011;55114;52.052;5.238;2023-07-08T04:29:59;6.40;;;3.20;;
68284;SDS011;55114;52.052;5.238;2023-07-08T04:32:27;5.68;;;3.50;;
68284;SDS011;55114;52.052;5.238;2023-07-08T04:34:54;5.87;;;3.10;;
68284;SDS011;55114;52.052;5.238;2023-07-08T04:37:21;6.35;;;3.50;;
68284;SDS011;55114;52.052;5.238;2023-07-08T04:39:49;7.85;;;3.85;;
68284;SDS011;55114;52.052;5.238;2023-07-08T04:42:16;5.60;;;3.35;;
68284;SDS011;55114;52.052;5.238;2023-07-08T04:44:44;6.68;;;3.60;;
68284;SDS011;55114;52.052;5.238;2023-07-08T04:47:11;5.70;;;3.20;;
68284;SDS011;55114;52.052;5.238;2023-07-08T04:49:40;5.78;;;3.45;;
68284;SDS011;55114;52.052;5.238;2023-07-08T04:52:10;6.30;;;3.65;;
68284;SDS011;55114;52.052;5.238;2023-07-08T04:54:37;5.35;;;3.28;;
68284;SDS011;55114;52.052;5.238;2023-07-08T04:57:05;6.15;;;3.33;;
68284;SDS011;55114;52.052;5.238;2023-07-08T04:59:32;7.13;;;3.90;;
68284;SDS011;55114;52.052;5.238;2023-07-08T05:02:01;7.28;;;3.80;;
68284;SDS011;55114;52.052;5.238;2023-07-08T05:04:28;6.00;;;4.00;;
68284;SDS011;55114;52.052;5.238;2023-07-08T05:06:55;6.20;;;3.70;;
68284;SDS011;55114;52.052;5.238;2023-07-08T05:09:23;5.47;;;3.30;;
68284;SDS011;55114;52.052;5.238;2023-07-08T05:11:52;5.33;;;3.60;;
68284;SDS011;55114;52.052;5.238;2023-07-08T05:14:19;4.90;;;3.13;;
68284;SDS011;55114;52.052;5.238;2023-07-08T05:16:47;6.93;;;3.42;;
68284;SDS011;55114;52.052;5.238;2023-07-08T05:19:14;6.82;;;3.60;;
68284;SDS011;55114;52.052;5.238;2023-07-08T05:21:42;5.80;;;3.67;;
68284;SDS011;55114;52.052;5.238;2023-07-08T05:24:11;5.63;;;3.73;;
68284;SDS011;55114;52.052;5.238;2023-07-08T05:26:38;6.47;;;3.53;;
68284;SDS011;55114;52.052;5.238;2023-07-08T05:29:06;5.63;;;3.42;;
68284;SDS011;55114;52.052;5.238;2023-07-08T05:31:33;5.50;;;3.65;;
68284;SDS011;55114;52.052;5.238;2023-07-08T05:34:03;6.00;;;4.18;;
68284;SDS011;55114;52.052;5.238;2023-07-08T05:36:30;5.63;;;3.20;;
68284;SDS011;55114;52.052;5.238;2023-07-08T05:38:58;7.22;;;3.53;;
68284;SDS011;55114;52.052;5.238;2023-07-08T05:41:25;6.53;;;3.88;;
68284;SDS011;55114;52.052;5.238;2023-07-08T05:43:52;6.40;;;3.80;;
68284;SDS011;55114;52.052;5.238;2023-07-08T05:46:19;6.88;;;3.42;;
68284;SDS011;55114;52.052;5.238;2023-07-08T05:48:47;5.17;;;3.60;;
68284;SDS011;55114;52.052;5.238;2023-07-08T05:51:15;12.02;;;3.83;;
68284;SDS011;55114;52.052;5.238;2023-07-08T05:53:42;6.50;;;3.60;;
68284;SDS011;55114;52.052;5.238;2023-07-08T05:56:09;5.25;;;3.60;;
68284;SDS011;55114;52.052;5.238;2023-07-08T05:58:37;5.93;;;3.80;;
68284;SDS011;55114;52.052;5.238;2023-07-08T06:01:04;7.27;;;3.50;;
68284;SDS011;55114;52.052;5.238;2023-07-08T06:03:32;6.38;;;3.50;;
68284;SDS011;55114;52.052;5.238;2023-07-08T06:05:59;8.43;;;3.42;;
68284;SDS011;55114;52.052;5.238;2023-07-08T06:08:28;6.90;;;3.70;;
68284;SDS011;55114;52.052;5.238;2023-07-08T06:10:55;6.10;;;3.42;;
68284;SDS011;55114;52.052;5.238;2023-07-08T06:13:23;5.20;;;3.30;;
68284;SDS011;55114;52.052;5.238;2023-07-08T06:15:50;6.85;;;3.40;;
68284;SDS011;55114;52.052;5.238;2023-07-08T06:18:17;6.55;;;3.60;;
68284;SDS011;55114;52.052;5.238;2023-07-08T06:20:51;4.97;;;3.50;;
68284;SDS011;55114;52.052;5.238;2023-07-08T06:23:19;7.15;;;3.70;;
68284;SDS011;55114;52.052;5.238;2023-07-08T06:25:46;7.20;;;3.70;;
68284;SDS011;55114;52.052;5.238;2023-07-08T06:28:14;5.90;;;3.22;;
68284;SDS011;55114;52.052;5.238;2023-07-08T06:30:41;5.40;;;3.97;;
68284;SDS011;55114;52.052;5.238;2023-07-08T06:33:08;5.95;;;3.70;;
68284;SDS011;55114;52.052;5.238;2023-07-08T06:35:38;5.43;;;3.70;;
68284;SDS011;55114;52.052;5.238;2023-07-08T06:38:05;5.93;;;3.30;;
68284;SDS011;55114;52.052;5.238;2023-07-08T06:40:33;5.57;;;3.60;;
68284;SDS011;55114;52.052;5.238;2023-07-08T06:43:02;6.63;;;3.90;;
68284;SDS011;55114;52.052;5.238;2023-07-08T06:45:30;7.55;;;3.50;;
68284;SDS011;55114;52.052;5.238;2023-07-08T06:47:57;5.55;;;3.50;;
68284;SDS011;55114;52.052;5.238;2023-07-08T06:50:24;4.83;;;3.23;;
68284;SDS011;55114;52.052;5.238;2023-07-08T06:52:52;5.78;;;3.63;;
68284;SDS011;55114;52.052;5.238;2023-07-08T06:55:19;6.65;;;3.72;;
68284;SDS011;55114;52.052;5.238;2023-07-08T06:57:47;5.18;;;3.55;;
68284;SDS011;55114;52.052;5.238;2023-07-08T07:00:14;5.57;;;3.85;;
68284;SDS011;55114;52.052;5.238;2023-07-08T07:02:41;10.77;;;3.80;;
68284;SDS011;55114;52.052;5.238;2023-07-08T07:05:09;5.72;;;3.75;;
68284;SDS011;55114;52.052;5.238;2023-07-08T07:07:37;5.70;;;3.38;;
68284;SDS011;55114;52.052;5.238;2023-07-08T07:10:04;5.22;;;3.42;;
68284;SDS011;55114;52.052;5.238;2023-07-08T07:12:34;5.60;;;3.60;;
68284;SDS011;55114;52.052;5.238;2023-07-08T07:15:01;6.20;;;3.80;;
68284;SDS011;55114;52.052;5.238;2023-07-08T07:17:29;5.18;;;3.33;;
68284;SDS011;55114;52.052;5.238;2023-07-08T07:19:57;6.63;;;3.78;;
68284;SDS011;55114;52.052;5.238;2023-07-08T07:22:24;4.97;;;3.50;;
68284;SDS011;55114;52.052;5.238;2023-07-08T07:24:51;7.20;;;3.75;;
68284;SDS011;55114;52.052;5.238;2023-07-08T07:27:19;5.67;;;3.70;;
68284;SDS011;55114;52.052;5.238;2023-07-08T07:29:49;6.28;;;3.65;;
68284;SDS011;55114;52.052;5.238;2023-07-08T07:32:18;6.70;;;3.97;;
68284;SDS011;55114;52.052;5.238;2023-07-08T07:34:48;8.02;;;3.80;;
68284;SDS011;55114;52.052;5.238;2023-07-08T07:37:17;5.80;;;3.85;;
68284;SDS011;55114;52.052;5.238;2023-07-08T07:39:48;6.47;;;3.83;;
68284;SDS011;55114;52.052;5.238;2023-07-08T07:42:15;5.22;;;3.60;;
68284;SDS011;55114;52.052;5.238;2023-07-08T07:44:43;6.13;;;4.15;;
68284;SDS011;55114;52.052;5.238;2023-07-08T07:47:10;5.82;;;4.10;;
68284;SDS011;55114;52.052;5.238;2023-07-08T07:49:38;5.95;;;3.90;;
68284;SDS011;55114;52.052;5.238;2023-07-08T07:52:08;6.03;;;3.73;;
68284;SDS011;55114;52.052;5.238;2023-07-08T07:54:38;6.07;;;4.07;;
68284;SDS011;55114;52.052;5.238;2023-07-08T07:57:08;6.20;;;4.13;;
68284;SDS011;55114;52.052;5.238;2023-07-08T07:59:40;6.20;;;3.90;;
68284;SDS011;55114;52.052;5.238;2023-07-08T08:02:07;7.15;;;4.35;;
68284;SDS011;55114;52.052;5.238;2023-07-08T08:04:35;6.10;;;4.23;;
68284;SDS011;55114;52.052;5.238;2023-07-08T08:07:06;6.93;;;4.60;;
68284;SDS011;55114;52.052;5.238;2023-07-08T08:09:33;7.32;;;4.72;;
68284;SDS011;55114;52.052;5.238;2023-07-08T08:12:07;8.27;;;4.05;;
68284;SDS011;55114;52.052;5.238;2023-07-08T08:14:46;7.75;;;4.28;;
68284;SDS011;55114;52.052;5.238;2023-07-08T08:17:24;7.93;;;4.50;;
68284;SDS011;55114;52.052;5.238;2023-07-08T08:20:02;5.88;;;4.18;;
68284;SDS011;55114;52.052;5.238;2023-07-08T08:22:32;7.25;;;4.55;;
68284;SDS011;55114;52.052;5.238;2023-07-08T08:24:59;10.75;;;4.32;;
68284;SDS011;55114;52.052;5.238;2023-07-08T08:27:29;5.85;;;4.10;;
68284;SDS011;55114;52.052;5.238;2023-07-08T08:29:56;7.20;;;4.60;;
68284;SDS011;55114;52.052;5.238;2023-07-08T08:32:26;6.20;;;4.68;;
68284;SDS011;55114;52.052;5.238;2023-07-08T08:34:54;7.53;;;4.85;;
68284;SDS011;55114;52.052;5.238;2023-07-08T08:37:21;8.77;;;4.82;;
68284;SDS011;55114;52.052;5.238;2023-07-08T08:39:48;6.18;;;4.70;;
68284;SDS011;55114;52.052;5.238;2023-07-08T08:42:25;6.83;;;4.50;;
68284;SDS011;55114;52.052;5.238;2023-07-08T08:44:52;6.57;;;4.70;;
68284;SDS011;55114;52.052;5.238;2023-07-08T08:47:31;8.70;;;5.00;;
68284;SDS011;55114;52.052;5.238;2023-07-08T08:50:03;9.20;;;5.05;;
68284;SDS011;55114;52.052;5.238;2023-07-08T08:52:36;9.07;;;4.72;;
68284;SDS011;55114;52.052;5.238;2023-07-08T08:55:10;6.63;;;4.50;;
68284;SDS011;55114;52.052;5.238;2023-07-08T08:57:43;7.20;;;4.72;;
68284;SDS011;55114;52.052;5.238;2023-07-08T09:00:13;7.40;;;5.07;;
68284;SDS011;55114;52.052;5.238;2023-07-08T09:02:53;6.65;;;4.95;;
68284;SDS011;55114;52.052;5.238;2023-07-08T09:05:20;7.72;;;5.07;;
68284;SDS011;55114;52.052;5.238;2023-07-08T09:10:31;7.28;;;5.30;;
68284;SDS011;55114;52.052;5.238;2023-07-08T09:13:02;9.43;;;5.85;;
68284;SDS011;55114;52.052;5.238;2023-07-08T09:15:31;7.40;;;5.05;;
68284;SDS011;55114;52.052;5.238;2023-07-08T09:18:03;9.10;;;5.50;;
68284;SDS011;55114;52.052;5.238;2023-07-08T09:20:32;8.87;;;5.27;;
68284;SDS011;55114;52.052;5.238;2023-07-08T09:23:03;9.95;;;5.18;;
68284;SDS011;55114;52.052;5.238;2023-07-08T09:25:41;8.80;;;5.68;;
68284;SDS011;55114;52.052;5.238;2023-07-08T09:28:12;12.30;;;5.40;;
68284;SDS011;55114;52.052;5.238;2023-07-08T09:30:42;14.80;;;6.07;;
68284;SDS011;55114;52.052;5.238;2023-07-08T09:33:13;7.13;;;5.00;;
68284;SDS011;55114;52.052;5.238;2023-07-08T09:35:41;8.50;;;5.45;;
68284;SDS011;55114;52.052;5.238;2023-07-08T09:38:11;8.55;;;5.55;;
68284;SDS011;55114;52.052;5.238;2023-07-08T09:40:42;8.43;;;5.93;;
68284;SDS011;55114;52.052;5.238;2023-07-08T09:43:16;9.23;;;5.65;;
68284;SDS011;55114;52.052;5.238;2023-07-08T09:45:46;7.03;;;5.10;;
68284;SDS011;55114;52.052;5.238;2023-07-08T09:48:15;9.93;;;5.50;;
68284;SDS011;55114;52.052;5.238;2023-07-08T09:50:43;7.32;;;5.90;;
68284;SDS011;55114;52.052;5.238;2023-07-08T09:53:11;9.20;;;6.05;;
68284;SDS011;55114;52.052;5.238;2023-07-08T09:55:40;8.43;;;6.47;;
68284;SDS011;55114;52.052;5.238;2023-07-08T09:58:18;8.37;;;5.30;;
68284;SDS011;55114;52.052;5.238;2023-07-08T10:00:50;9.68;;;5.05;;
68284;SDS011;55114;52.052;5.238;2023-07-08T10:03:28;9.38;;;6.20;;
68284;SDS011;55114;52.052;5.238;2023-07-08T10:05:56;8.70;;;5.78;;
68284;SDS011;55114;52.052;5.238;2023-07-08T10:08:44;8.95;;;6.07;;
68284;SDS011;55114;52.052;5.238;2023-07-08T10:13:59;8.70;;;5.57;;
68284;SDS011;55114;52.052;5.238;2023-07-08T10:16:40;8.18;;;5.53;;
68284;SDS011;55114;52.052;5.238;2023-07-08T10:19:10;8.80;;;5.57;;
68284;SDS011;55114;52.052;5.238;2023-07-08T10:26:46;7.38;;;5.63;;
68284;SDS011;55114;52.052;5.238;2023-07-08T10:29:26;8.82;;;6.03;;
68284;SDS011;55114;52.052;5.238;2023-07-08T10:34:49;9.85;;;6.00;;
68284;SDS011;55114;52.052;5.238;2023-07-08T10:39:55;8.52;;;6.18;;
68284;SDS011;55114;52.052;5.238;2023-07-08T10:42:32;8.05;;;6.07;;
68284;SDS011;55114;52.052;5.238;2023-07-08T10:45:17;8.27;;;6.15;;
68284;SDS011;55114;52.052;5.238;2023-07-08T10:48:02;8.65;;;6.60;;
68284;SDS011;55114;52.052;5.238;2023-07-08T10:50:39;11.60;;;7.23;;
68284;SDS011;55114;52.052;5.238;2023-07-08T10:55:46;8.88;;;5.90;;
68284;SDS011;55114;52.052;5.238;2023-07-08T11:05:50;8.48;;;6.55;;
68284;SDS011;55114;52.052;5.238;2023-07-08T11:08:23;8.57;;;6.47;;
68284;SDS011;55114;52.052;5.238;2023-07-08T11:10:59;9.65;;;5.82;;
68284;SDS011;55114;52.052;5.238;2023-07-08T11:13:43;8.85;;;6.60;;
68284;SDS011;55114;52.052;5.238;2023-07-08T11:16:23;8.20;;;6.13;;
68284;SDS011;55114;52.052;5.238;2023-07-08T11:18:56;10.27;;;6.65;;
68284;SDS011;55114;52.052;5.238;2023-07-08T11:21:29;8.85;;;6.45;;
68284;SDS011;55114;52.052;5.238;2023-07-08T11:24:00;9.07;;;6.57;;
68284;SDS011;55114;52.052;5.238;2023-07-08T11:26:30;9.32;;;6.63;;
68284;SDS011;55114;52.052;5.238;2023-07-08T11:28:59;10.43;;;5.77;;
68284;SDS011;55114;52.052;5.238;2023-07-08T11:31:27;8.73;;;6.32;;
68284;SDS011;55114;52.052;5.238;2023-07-08T11:33:57;8.48;;;6.65;;
68284;SDS011;55114;52.052;5.238;2023-07-08T11:36:24;11.65;;;6.40;;
68284;SDS011;55114;52.052;5.238;2023-07-08T11:38:54;9.55;;;6.18;;
68284;SDS011;55114;52.052;5.238;2023-07-08T11:41:22;8.13;;;6.57;;
68284;SDS011;55114;52.052;5.238;2023-07-08T11:43:51;8.75;;;6.38;;
68284;SDS011;55114;52.052;5.238;2023-07-08T11:46:20;8.60;;;6.05;;
68284;SDS011;55114;52.052;5.238;2023-07-08T11:48:51;8.65;;;5.93;;
68284;SDS011;55114;52.052;5.238;2023-07-08T11:51:21;9.00;;;7.25;;
68284;SDS011;55114;52.052;5.238;2023-07-08T11:53:50;8.53;;;6.60;;
68284;SDS011;55114;52.052;5.238;2023-07-08T11:56:25;8.45;;;6.53;;
68284;SDS011;55114;52.052;5.238;2023-07-08T11:59:04;11.35;;;6.78;;
68284;SDS011;55114;52.052;5.238;2023-07-08T12:01:54;10.88;;;6.88;;
68284;SDS011;55114;52.052;5.238;2023-07-08T12:04:25;11.43;;;7.47;;
68284;SDS011;55114;52.052;5.238;2023-07-08T12:07:15;8.83;;;6.93;;
68284;SDS011;55114;52.052;5.238;2023-07-08T12:09:56;8.20;;;7.00;;
68284;SDS011;55114;52.052;5.238;2023-07-08T12:12:29;11.07;;;6.93;;
68284;SDS011;55114;52.052;5.238;2023-07-08T12:15:00;10.52;;;7.25;;
68284;SDS011;55114;52.052;5.238;2023-07-08T12:17:28;9.63;;;7.20;;
68284;SDS011;55114;52.052;5.238;2023-07-08T12:19:55;9.80;;;7.00;;
68284;SDS011;55114;52.052;5.238;2023-07-08T12:22:24;9.23;;;6.72;;
68284;SDS011;55114;52.052;5.238;2023-07-08T12:24:52;11.57;;;7.20;;
68284;SDS011;55114;52.052;5.238;2023-07-08T12:27:19;10.45;;;7.10;;
68284;SDS011;55114;52.052;5.238;2023-07-08T12:29:48;10.70;;;7.05;;
68284;SDS011;55114;52.052;5.238;2023-07-08T12:32:16;11.93;;;7.03;;
68284;SDS011;55114;52.052;5.238;2023-07-08T12:34:45;10.30;;;7.65;;
68284;SDS011;55114;52.052;5.238;2023-07-08T12:37:13;9.82;;;7.07;;
68284;SDS011;55114;52.052;5.238;2023-07-08T12:39:40;9.95;;;7.45;;
68284;SDS011;55114;52.052;5.238;2023-07-08T12:42:10;9.65;;;6.82;;
68284;SDS011;55114;52.052;5.238;2023-07-08T12:44:38;8.77;;;6.77;;
68284;SDS011;55114;52.052;5.238;2023-07-08T12:47:10;11.75;;;7.20;;
68284;SDS011;55114;52.052;5.238;2023-07-08T12:49:37;8.88;;;7.13;;
68284;SDS011;55114;52.052;5.238;2023-07-08T12:52:04;9.23;;;7.03;;
68284;SDS011;55114;52.052;5.238;2023-07-08T12:54:31;9.80;;;7.10;;
68284;SDS011;55114;52.052;5.238;2023-07-08T12:57:00;10.20;;;7.27;;
68284;SDS011;55114;52.052;5.238;2023-07-08T12:59:28;9.13;;;7.03;;
68284;SDS011;55114;52.052;5.238;2023-07-08T13:01:56;9.85;;;6.60;;
68284;SDS011;55114;52.052;5.238;2023-07-08T13:04:23;9.60;;;7.00;;
68284;SDS011;55114;52.052;5.238;2023-07-08T13:06:51;10.95;;;7.22;;
68284;SDS011;55114;52.052;5.238;2023-07-08T13:11:46;9.45;;;6.60;;
68284;SDS011;55114;52.052;5.238;2023-07-08T13:14:13;10.35;;;7.13;;
68284;SDS011;55114;52.052;5.238;2023-07-08T13:16:41;10.82;;;7.00;;
68284;SDS011;55114;52.052;5.238;2023-07-08T13:19:10;11.65;;;7.43;;
68284;SDS011;55114;52.052;5.238;2023-07-08T13:21:39;9.67;;;7.17;;
68284;SDS011;55114;52.052;5.238;2023-07-08T13:24:07;7.97;;;6.80;;
68284;SDS011;55114;52.052;5.238;2023-07-08T13:26:36;8.55;;;6.85;;
68284;SDS011;55114;52.052;5.238;2023-07-08T13:29:10;11.18;;;6.93;;
68284;SDS011;55114;52.052;5.238;2023-07-08T13:31:39;9.93;;;7.53;;
68284;SDS011;55114;52.052;5.238;2023-07-08T13:34:15;9.77;;;7.47;;
68284;SDS011;55114;52.052;5.238;2023-07-08T13:36:43;10.07;;;6.60;;
68284;SDS011;55114;52.052;5.238;2023-07-08T13:39:19;8.88;;;7.32;;
68284;SDS011;55114;52.052;5.238;2023-07-08T13:41:48;10.93;;;6.90;;
68284;SDS011;55114;52.052;5.238;2023-07-08T13:44:15;9.57;;;6.60;;
68284;SDS011;55114;52.052;5.238;2023-07-08T13:46:55;12.67;;;6.70;;
68284;SDS011;55114;52.052;5.238;2023-07-08T13:49:26;9.85;;;7.03;;
68284;SDS011;55114;52.052;5.238;2023-07-08T13:52:07;9.95;;;7.78;;
68284;SDS011;55114;52.052;5.238;2023-07-08T13:54:41;14.48;;;6.93;;
68284;SDS011;55114;52.052;5.238;2023-07-08T13:57:09;10.35;;;7.38;;
68284;SDS011;55114;52.052;5.238;2023-07-08T13:59:37;9.67;;;6.70;;
68284;SDS011;55114;52.052;5.238;2023-07-08T14:02:12;8.02;;;6.53;;
68284;SDS011;55114;52.052;5.238;2023-07-08T14:04:40;11.60;;;7.32;;
68284;SDS011;55114;52.052;5.238;2023-07-08T14:07:13;10.07;;;6.85;;
68284;SDS011;55114;52.052;5.238;2023-07-08T14:09:41;11.35;;;7.28;;
68284;SDS011;55114;52.052;5.238;2023-07-08T14:12:09;10.17;;;7.43;;
68284;SDS011;55114;52.052;5.238;2023-07-08T14:14:37;11.68;;;7.35;;
68284;SDS011;55114;52.052;5.238;2023-07-08T14:17:04;10.65;;;7.03;;
68284;SDS011;55114;52.052;5.238;2023-07-08T14:19:33;10.25;;;7.10;;
68284;SDS011;55114;52.052;5.238;2023-07-08T14:22:02;10.75;;;7.00;;
68284;SDS011;55114;52.052;5.238;2023-07-08T14:24:32;9.77;;;6.77;;
68284;SDS011;55114;52.052;5.238;2023-07-08T14:26:59;9.70;;;6.70;;
68284;SDS011;55114;52.052;5.238;2023-07-08T14:29:26;10.30;;;7.00;;
68284;SDS011;55114;52.052;5.238;2023-07-08T14:31:53;9.45;;;7.07;;
68284;SDS011;55114;52.052;5.238;2023-07-08T14:34:24;9.45;;;6.85;;
68284;SDS011;55114;52.052;5.238;2023-07-08T14:36:52;10.43;;;7.13;;
68284;SDS011;55114;52.052;5.238;2023-07-08T14:39:19;10.27;;;7.18;;
68284;SDS011;55114;52.052;5.238;2023-07-08T14:41:47;9.23;;;7.57;;
68284;SDS011;55114;52.052;5.238;2023-07-08T14:44:22;11.23;;;7.70;;
68284;SDS011;55114;52.052;5.238;2023-07-08T14:46:51;10.32;;;7.03;;
68284;SDS011;55114;52.052;5.238;2023-07-08T14:49:19;10.60;;;7.40;;
68284;SDS011;55114;52.052;5.238;2023-07-08T14:51:46;9.93;;;7.22;;
68284;SDS011;55114;52.052;5.238;2023-07-08T14:54:14;9.30;;;7.20;;
68284;SDS011;55114;52.052;5.238;2023-07-08T14:56:41;8.93;;;6.68;;
68284;SDS011;55114;52.052;5.238;2023-07-08T14:59:15;9.27;;;7.03;;
68284;SDS011;55114;52.052;5.238;2023-07-08T15:01:43;11.33;;;7.07;;
68284;SDS011;55114;52.052;5.238;2023-07-08T15:04:12;10.27;;;7.22;;
68284;SDS011;55114;52.052;5.238;2023-07-08T15:06:40;8.75;;;6.53;;
68284;SDS011;55114;52.052;5.238;2023-07-08T15:09:08;10.18;;;7.03;;
68284;SDS011;55114;52.052;5.238;2023-07-08T15:11:36;10.77;;;7.40;;
68284;SDS011;55114;52.052;5.238;2023-07-08T15:14:05;9.73;;;7.50;;
68284;SDS011;55114;52.052;5.238;2023-07-08T15:16:37;13.43;;;6.90;;
68284;SDS011;55114;52.052;5.238;2023-07-08T15:19:09;10.88;;;7.97;;
68284;SDS011;55114;52.052;5.238;2023-07-08T15:21:38;11.88;;;7.68;;
68284;SDS011;55114;52.052;5.238;2023-07-08T15:24:08;9.82;;;7.60;;
68284;SDS011;55114;52.052;5.238;2023-07-08T15:26:35;12.40;;;6.77;;
68284;SDS011;55114;52.052;5.238;2023-07-08T15:29:02;10.68;;;7.43;;
68284;SDS011;55114;52.052;5.238;2023-07-08T15:31:29;9.75;;;6.85;;
68284;SDS011;55114;52.052;5.238;2023-07-08T15:33:59;10.07;;;6.80;;
68284;SDS011;55114;52.052;5.238;2023-07-08T15:36:26;8.88;;;7.70;;